Aviation Digital Data Service (ADDS)

Output produced by METARs form (1941 UTC 19 August 2019)
found at http://www.aviationweather.gov/metar/data/
 
METAR text: RJOY 191000Z 11008KT 090V150 9999 FEW008 SCT020 BKN035 25/23 Q1009
Conditions at: RJOY (YAO (CIV/JGSDF) , JP) observed 1000 UTC 19 August 2019
Temperature: 25.0°C (77°F)
Dewpoint: 23.0°C (73°F) [RH = 89%]
Pressure (altimeter): 29.79 inches Hg (1009.0 mb)
Winds: from the ESE (110 degrees) at 9 MPH (8 knots; 4.1 m/s)
Visibility: 6 or more miles (10+ km)
Ceiling: 3500 feet AGL
Clouds: few clouds at 800 feet AGL
scattered clouds at 2000 feet AGL
broken clouds at 3500 feet AGL
Weather: no significant weather observed at this time

METAR text: RJOY 190900Z 07009KT 9999 -SHRA FEW008 FEW025CB SCT050 BKN120 25/24 Q1009
Conditions at: RJOY (YAO (CIV/JGSDF) , JP) observed 0900 UTC 19 August 2019
Temperature: 25.0°C (77°F)
Dewpoint: 24.0°C (75°F) [RH = 94%]
Pressure (altimeter): 29.79 inches Hg (1009.0 mb)
Winds: from the ENE (70 degrees) at 10 MPH (9 knots; 4.6 m/s)
Visibility: 6 or more miles (10+ km)
Ceiling: 12000 feet AGL
Clouds: few clouds at 800 feet AGL
few clouds at 2500 feet AGL
scattered clouds at 5000 feet AGL
broken clouds at 12000 feet AGL
Weather: -SHRA  (light rain showers)

METAR text: RJOY 190800Z 18003KT 120V250 3000 +TSRA BR FEW005 SCT010 BKN025CB 25/24 Q1010
Conditions at: RJOY (YAO (CIV/JGSDF) , JP) observed 0800 UTC 19 August 2019
Temperature: 25.0°C (77°F)
Dewpoint: 24.0°C (75°F) [RH = 94%]
Pressure (altimeter): 29.82 inches Hg (1010.0 mb)
Winds: from the S (180 degrees) at 3 MPH (3 knots; 1.5 m/s)
Visibility: 1.86 miles (2.99 km)
Ceiling: 2500 feet AGL
Clouds: few clouds at 500 feet AGL
scattered clouds at 1000 feet AGL
broken clouds at 2500 feet AGL
Weather: +TSRA BR  (heavy rain associated with thunderstorm(s), mist)

METAR text: RJOY 190729Z 23007KT 4500 +TSRA BR FEW008 SCT015 BKN025CB 27/26 Q1010 RMK 1ST008 3CU015 5CB025 A2984 HVY TS OHD MOV NE RI++
Conditions at: RJOY (YAO (CIV/JGSDF) , JP) observed 0729 UTC 19 August 2019
Temperature: 27.0°C (81°F)
Dewpoint: 26.0°C (79°F) [RH = 94%]
Pressure (altimeter): 29.82 inches Hg (1010.0 mb)
Winds: from the SW (230 degrees) at 8 MPH (7 knots; 3.6 m/s)
Visibility: 2.80 miles (4.51 km)
Ceiling: 2500 feet AGL
Clouds: few clouds at 800 feet AGL
scattered clouds at 1500 feet AGL
broken clouds at 2500 feet AGL
Weather: +TSRA BR  (heavy rain associated with thunderstorm(s), mist)

METAR text: RJOY 190700Z VRB02KT 6000 TSRA BR FEW020 FEW025CB SCT030 BKN040 27/26 Q1009
Conditions at: RJOY (YAO (CIV/JGSDF) , JP) observed 0700 UTC 19 August 2019
Temperature: 27.0°C (81°F)
Dewpoint: 26.0°C (79°F) [RH = 94%]
Pressure (altimeter): 29.79 inches Hg (1009.0 mb)
Winds: variable direction winds at 2 MPH (2 knots; 1.0 m/s)
Visibility: 4 miles ( 6 km)
Ceiling: 4000 feet AGL
Clouds: few clouds at 2000 feet AGL
few clouds at 2500 feet AGL
scattered clouds at 3000 feet AGL
broken clouds at 4000 feet AGL
Weather: TSRA BR  (rain associated with thunderstorm(s), mist)

METAR text: RJOY 190600Z 26010KT 9999 -SHRA FEW030 SCT070 BKN120 28/25 Q1009
Conditions at: RJOY (YAO (CIV/JGSDF) , JP) observed 0600 UTC 19 August 2019
Temperature: 28.0°C (82°F)
Dewpoint: 25.0°C (77°F) [RH = 84%]
Pressure (altimeter): 29.79 inches Hg (1009.0 mb)
Winds: from the W (260 degrees) at 12 MPH (10 knots; 5.1 m/s)
Visibility: 6 or more miles (10+ km)
Ceiling: 12000 feet AGL
Clouds: few clouds at 3000 feet AGL
scattered clouds at 7000 feet AGL
broken clouds at 12000 feet AGL
Weather: -SHRA  (light rain showers)

METAR text: RJOY 190500Z 26010KT 230V290 9999 VCSH FEW030 SCT040 BKN060 31/23 Q1008
Conditions at: RJOY (YAO (CIV/JGSDF) , JP) observed 0500 UTC 19 August 2019
Temperature: 31.0°C (88°F)
Dewpoint: 23.0°C (73°F) [RH = 63%]
Pressure (altimeter): 29.76 inches Hg (1008.0 mb)
Winds: from the W (260 degrees) at 12 MPH (10 knots; 5.1 m/s)
Visibility: 6 or more miles (10+ km)
Ceiling: 6000 feet AGL
Clouds: few clouds at 3000 feet AGL
scattered clouds at 4000 feet AGL
broken clouds at 6000 feet AGL
Weather: VCSH  (showers in vicinity)

METAR text: RJOY 190400Z 27011KT 9999 FEW030 SCT045 BKN/// 33/25 Q1008
Conditions at: RJOY (YAO (CIV/JGSDF) , JP) observed 0400 UTC 19 August 2019
Temperature: 33.0°C (91°F)
Dewpoint: 25.0°C (77°F) [RH = 63%]
Pressure (altimeter): 29.76 inches Hg (1008.0 mb)
Winds: from the W (270 degrees) at 13 MPH (11 knots; 5.7 m/s)
Visibility: 6 or more miles (10+ km)
Ceiling: at least 12,000 feet AGL
Clouds: few clouds at 3000 feet AGL
scattered clouds at 4500 feet AGL
Weather: no significant weather observed at this time

METAR text: RJOY 190300Z 27004KT 210V340 9999 FEW030 SCT040 BKN/// 34/25 Q1009
Conditions at: RJOY (YAO (CIV/JGSDF) , JP) observed 0300 UTC 19 August 2019
Temperature: 34.0°C (93°F)
Dewpoint: 25.0°C (77°F) [RH = 60%]
Pressure (altimeter): 29.79 inches Hg (1009.0 mb)
Winds: from the W (270 degrees) at 5 MPH (4 knots; 2.1 m/s)
Visibility: 6 or more miles (10+ km)
Ceiling: at least 12,000 feet AGL
Clouds: few clouds at 3000 feet AGL
scattered clouds at 4000 feet AGL
Weather: no significant weather observed at this time

METAR text: RJOY 190208Z VRB03KT 9999 FEW030 SCT040 BKN/// 34/25 Q1009 RMK 1CU030 3CU040 A2980
Conditions at: RJOY (YAO (CIV/JGSDF) , JP) observed 0208 UTC 19 August 2019
Temperature: 34.0°C (93°F)
Dewpoint: 25.0°C (77°F) [RH = 60%]
Pressure (altimeter): 29.79 inches Hg (1009.0 mb)
Winds: variable direction winds at 3 MPH (3 knots; 1.5 m/s)
Visibility: 6 or more miles (10+ km)
Ceiling: at least 12,000 feet AGL
Clouds: few clouds at 3000 feet AGL
scattered clouds at 4000 feet AGL
Weather: no significant weather observed at this time

METAR text: RJOY 190200Z VRB03KT 9999 FEW030 SCT150 BKN/// 32/23 Q1009
Conditions at: RJOY (YAO (CIV/JGSDF) , JP) observed 0200 UTC 19 August 2019
Temperature: 32.0°C (90°F)
Dewpoint: 23.0°C (73°F) [RH = 59%]
Pressure (altimeter): 29.79 inches Hg (1009.0 mb)
Winds: variable direction winds at 3 MPH (3 knots; 1.5 m/s)
Visibility: 6 or more miles (10+ km)
Ceiling: at least 12,000 feet AGL
Clouds: few clouds at 3000 feet AGL
scattered clouds at 15000 feet AGL
Weather: no significant weather observed at this time

METAR text: RJOY 190100Z VRB03KT 9999 FEW030 SCT150 BKN/// 32/25 Q1009
Conditions at: RJOY (YAO (CIV/JGSDF) , JP) observed 0100 UTC 19 August 2019
Temperature: 32.0°C (90°F)
Dewpoint: 25.0°C (77°F) [RH = 67%]
Pressure (altimeter): 29.79 inches Hg (1009.0 mb)
Winds: variable direction winds at 3 MPH (3 knots; 1.5 m/s)
Visibility: 6 or more miles (10+ km)
Ceiling: at least 12,000 feet AGL
Clouds: few clouds at 3000 feet AGL
scattered clouds at 15000 feet AGL
Weather: no significant weather observed at this time

METAR text: RJOY 190000Z 11005KT 060V170 9999 FEW030 BKN160 31/24 Q1009
Conditions at: RJOY (YAO (CIV/JGSDF) , JP) observed 0000 UTC 19 August 2019
Temperature: 31.0°C (88°F)
Dewpoint: 24.0°C (75°F) [RH = 66%]
Pressure (altimeter): 29.79 inches Hg (1009.0 mb)
Winds: from the ESE (110 degrees) at 6 MPH (5 knots; 2.6 m/s)
Visibility: 6 or more miles (10+ km)
Ceiling: 16000 feet AGL
Clouds: few clouds at 3000 feet AGL
broken clouds at 16000 feet AGL
Weather: no significant weather observed at this time

METAR text: RJOY 182300Z VRB02KT 9999 FEW030 SCT170 BKN/// 30/23 Q1009
Conditions at: RJOY (YAO (CIV/JGSDF) , JP) observed 2300 UTC 18 August 2019
Temperature: 30.0°C (86°F)
Dewpoint: 23.0°C (73°F) [RH = 66%]
Pressure (altimeter): 29.79 inches Hg (1009.0 mb)
Winds: variable direction winds at 2 MPH (2 knots; 1.0 m/s)
Visibility: 6 or more miles (10+ km)
Ceiling: at least 12,000 feet AGL
Clouds: few clouds at 3000 feet AGL
scattered clouds at 17000 feet AGL
Weather: no significant weather observed at this time

METAR text: RJOY 181000Z 28006KT 9999 FEW030 SCT/// 31/22 Q1005
Conditions at: RJOY (YAO (CIV/JGSDF) , JP) observed 1000 UTC 18 August 2019
Temperature: 31.0°C (88°F)
Dewpoint: 22.0°C (72°F) [RH = 59%]
Pressure (altimeter): 29.68 inches Hg (1005.0 mb)
Winds: from the W (280 degrees) at 7 MPH (6 knots; 3.1 m/s)
Visibility: 6 or more miles (10+ km)
Ceiling: at least 12,000 feet AGL
Clouds: few clouds at 3000 feet AGL
Weather: no significant weather observed at this time

METAR text: RJOY 180900Z 25006KT 210V280 9999 FEW030 SCT070 32/22 Q1005
Conditions at: RJOY (YAO (CIV/JGSDF) , JP) observed 0900 UTC 18 August 2019
Temperature: 32.0°C (90°F)
Dewpoint: 22.0°C (72°F) [RH = 56%]
Pressure (altimeter): 29.68 inches Hg (1005.0 mb)
Winds: from the WSW (250 degrees) at 7 MPH (6 knots; 3.1 m/s)
Visibility: 6 or more miles (10+ km)
Ceiling: at least 12,000 feet AGL
Clouds: few clouds at 3000 feet AGL
scattered clouds at 7000 feet AGL
Weather: no significant weather observed at this time

METAR text: RJOY 180800Z 25008KT 220V280 9999 FEW025CB 33/23 Q1005
Conditions at: RJOY (YAO (CIV/JGSDF) , JP) observed 0800 UTC 18 August 2019
Temperature: 33.0°C (91°F)
Dewpoint: 23.0°C (73°F) [RH = 56%]
Pressure (altimeter): 29.68 inches Hg (1005.0 mb)
Winds: from the WSW (250 degrees) at 9 MPH (8 knots; 4.1 m/s)
Visibility: 6 or more miles (10+ km)
Ceiling: at least 12,000 feet AGL
Clouds: few clouds at 2500 feet AGL
Weather: no significant weather observed at this time